Aviation Digital Data Service (ADDS)

Output produced by METARs form (1739 UTC 27 May 2017)
found at http://www.aviationweather.gov/adds/metars/
 
DTTA 271730Z 04010KT 010V070 9999 SCT026 23/13 Q1017 NOSIG
TAF DTTA 271656Z 2718/2818 07010KT CAVOK 
     TEMPO 2720/2806 VRB03KT
       
DTTR 271200Z 06010KT 8000 NSC 37/08 Q1012
TAF DTTR 271152Z 2713/2722 08012KT 8000 NSC
       
DTTG 271700Z 09014KT 9999 SCT030 26/10 Q1015 NOSIG
TAF DTTG 271523Z 2716/2801 10015KT 9999 SCT030
       
DTTF 271700Z 06013KT 9999 FEW026 29/11 Q1012 NOSIG
TAF DTTF 271523Z 2716/2801 04012KT 9999 SCT026
       
DTMB 271730Z 08013KT 9999 OVC017 22/18 Q1017
TAF DTMB 271656Z 2718/2818 10010KT 9999 SCT016 
     TEMPO 2720/2806 VRB03KT
       
DTTZ 271700Z 09019KT 8000 FEW030 31/09 Q1012
TAF DTTZ 271656Z 2718/2818 09020KT 6000 NSC
       
DTTD 271700Z AUTO 11009KT 060V140 NCD 31/08 Q1015
DTTB 271700Z 07014KT CAVOK 23/13 Q1017
TAF DTTB 271523Z 2716/2801 07017KT CAVOK
       
DTKA 271700Z 05016KT CAVOK 28/12 Q1015 NOSIG
TAF DTKA 271523Z 2716/2801 05012KT CAVOK
       
DTTX 271700Z 11010KT 9999 BKN030 23/18 Q1015 NOSIG
TAF DTTX 271523Z 2716/2801 07012KT 9999 BKN030
       
DTTJ 271730Z 09011KT 9999 FEW016 24/17 Q1014 NOSING
TAF DTTJ 271656Z 2718/2818 07010KT CAVOK